Main page
METAR-TAF:

METAR-TAF

Airports :

Waukesha County Airport

Waukesha, Wisconsin, United States

latitude: 43-02-28N, longitude: 088-14-13W, elevation: 912 ft

Current weather observation

The report was made 17 minutes ago, at 18:45 UTC
Wind 6 mph from the East/Southeast
Temperature 45°F
Humidity 49%
Pressure 30.30 in. Hg
Visibility: 10 miles
Clear sky

METAR: KUES 241845Z 11005KT 10SM CLR 07/M03 A3030

Time: 14:02 (19:02 UTC)

Forecast

The report was made 1 hour and 42 minutes ago, at 17:20 UTC
Forecast valid from 24 at 18 UTC to 25 at 18 UTC
Wind 7 mph from the East/Northeast
Visibility: 6 miles
Clear sky
From 25 at 0300 UTC
Wind 3 mph from the East
Visibility: 6 miles
Clear sky
From 25 at 1700 UTC
Wind 8 mph from the East/Southeast
Visibility: 6 miles
Clear sky

TAF: KUES 241720Z 2418/2518 06006KT P6SM SKC FM250300 10003KT P6SM SKC FM251700 12007KT P6SM SKC

Weather observations and forecasts of more than 4000 airports (METAR and TAF reports).

The available stations are represented by yellow and red dots on the map.

Hover mouse over dot to see the name of the station.

Then click to see weather observations and forecasts.

To change the map : click on the green buttons with a black cross to zoom in, on the green button with a dash to zoom out, or on the green arrows for adjacent maps.


METAR-TAF: